sensor_id;sensor_type;location;lat;lon;timestamp;pressure;altitude;pressure_sealevel;temperature;humidity
73151;BME280;61354;50.758;6.106;2023-02-28T00:00:25;100453.69;;;-0.73;81.56
73151;BME280;61354;50.758;6.106;2023-02-28T00:02:51;100452.19;;;-0.81;82.18
73151;BME280;61354;50.758;6.106;2023-02-28T00:05:19;100463.50;;;-0.72;81.71
73151;BME280;61354;50.758;6.106;2023-02-28T00:07:45;100462.72;;;-0.90;81.91
73151;BME280;61354;50.758;6.106;2023-02-28T00:10:13;100464.69;;;-0.85;81.80
73151;BME280;61354;50.758;6.106;2023-02-28T00:12:39;100456.03;;;-0.99;82.31
73151;BME280;61354;50.758;6.106;2023-02-28T00:15:06;100460.97;;;-0.96;82.54
73151;BME280;61354;50.758;6.106;2023-02-28T00:17:32;100455.63;;;-0.91;82.47
73151;BME280;61354;50.758;6.106;2023-02-28T00:19:58;100460.75;;;-1.11;82.86
73151;BME280;61354;50.758;6.106;2023-02-28T00:22:36;100451.41;;;-1.15;82.65
73151;BME280;61354;50.758;6.106;2023-02-28T00:25:03;100464.72;;;-1.19;82.69
73151;BME280;61354;50.758;6.106;2023-02-28T00:27:29;100461.72;;;-1.17;83.15
73151;BME280;61354;50.758;6.106;2023-02-28T00:29:55;100458.34;;;-1.08;83.29
73151;BME280;61354;50.758;6.106;2023-02-28T00:32:21;100462.72;;;-1.07;83.01
73151;BME280;61354;50.758;6.106;2023-02-28T00:34:46;100461.25;;;-1.14;82.76
73151;BME280;61354;50.758;6.106;2023-02-28T00:37:12;100462.41;;;-1.10;82.77
73151;BME280;61354;50.758;6.106;2023-02-28T00:39:38;100466.63;;;-1.19;82.90
73151;BME280;61354;50.758;6.106;2023-02-28T00:42:05;100457.91;;;-1.16;82.56
73151;BME280;61354;50.758;6.106;2023-02-28T00:44:32;100458.25;;;-0.96;81.92
73151;BME280;61354;50.758;6.106;2023-02-28T00:46:58;100463.81;;;-1.08;82.22
73151;BME280;61354;50.758;6.106;2023-02-28T00:49:25;100460.91;;;-1.01;82.37
73151;BME280;61354;50.758;6.106;2023-02-28T00:51:52;100463.63;;;-1.18;82.09
73151;BME280;61354;50.758;6.106;2023-02-28T00:54:18;100464.03;;;-1.26;82.60
73151;BME280;61354;50.758;6.106;2023-02-28T00:56:43;100473.78;;;-1.30;83.08
73151;BME280;61354;50.758;6.106;2023-02-28T00:59:15;100461.50;;;-1.33;83.10
73151;BME280;61354;50.758;6.106;2023-02-28T01:01:41;100466.28;;;-1.23;83.19
73151;BME280;61354;50.758;6.106;2023-02-28T01:04:07;100463.22;;;-1.27;82.93
73151;BME280;61354;50.758;6.106;2023-02-28T01:06:33;100475.94;;;-1.15;83.34
73151;BME280;61354;50.758;6.106;2023-02-28T01:09:00;100473.97;;;-1.37;82.85
73151;BME280;61354;50.758;6.106;2023-02-28T01:11:25;100467.84;;;-1.44;83.25
73151;BME280;61354;50.758;6.106;2023-02-28T01:13:53;100473.97;;;-1.37;83.69
73151;BME280;61354;50.758;6.106;2023-02-28T01:16:19;100472.81;;;-1.41;84.20
73151;BME280;61354;50.758;6.106;2023-02-28T01:18:44;100475.41;;;-1.46;84.21
73151;BME280;61354;50.758;6.106;2023-02-28T01:21:14;100484.66;;;-1.47;84.19
73151;BME280;61354;50.758;6.106;2023-02-28T01:23:40;100479.69;;;-1.50;83.69
73151;BME280;61354;50.758;6.106;2023-02-28T01:26:11;100473.78;;;-1.47;83.64
73151;BME280;61354;50.758;6.106;2023-02-28T01:28:37;100477.56;;;-1.48;83.37
73151;BME280;61354;50.758;6.106;2023-02-28T01:31:03;100482.69;;;-1.35;82.61
73151;BME280;61354;50.758;6.106;2023-02-28T01:33:28;100474.03;;;-1.48;83.74
73151;BME280;61354;50.758;6.106;2023-02-28T01:36:20;100474.09;;;-1.43;83.70
73151;BME280;61354;50.758;6.106;2023-02-28T01:38:46;100479.81;;;-1.45;83.45
73151;BME280;61354;50.758;6.106;2023-02-28T01:41:23;100475.94;;;-1.49;84.03
73151;BME280;61354;50.758;6.106;2023-02-28T01:46:15;100469.81;;;-1.56;83.62
73151;BME280;61354;50.758;6.106;2023-02-28T01:51:20;100475.16;;;-1.61;84.02
73151;BME280;61354;50.758;6.106;2023-02-28T01:53:56;100466.84;;;-1.38;82.67
73151;BME280;61354;50.758;6.106;2023-02-28T01:56:27;100467.84;;;-1.44;82.35
73151;BME280;61354;50.758;6.106;2023-02-28T01:58:55;100471.44;;;-1.55;82.81
73151;BME280;61354;50.758;6.106;2023-02-28T02:01:22;100463.34;;;-1.50;83.07
73151;BME280;61354;50.758;6.106;2023-02-28T02:03:52;100462.50;;;-1.67;83.52
73151;BME280;61354;50.758;6.106;2023-02-28T02:06:34;100459.72;;;-1.56;83.35
73151;BME280;61354;50.758;6.106;2023-02-28T02:09:01;100465.16;;;-1.72;83.58
73151;BME280;61354;50.758;6.106;2023-02-28T02:11:28;100462.91;;;-1.76;83.94
73151;BME280;61354;50.758;6.106;2023-02-28T02:14:16;100454.31;;;-1.84;84.28
73151;BME280;61354;50.758;6.106;2023-02-28T02:24:49;100441.22;;;-1.70;84.04
73151;BME280;61354;50.758;6.106;2023-02-28T02:27:25;100441.38;;;-1.77;84.44
73151;BME280;61354;50.758;6.106;2023-02-28T02:40:57;100445.78;;;-1.88;84.10
73151;BME280;61354;50.758;6.106;2023-02-28T02:43:42;100439.63;;;-1.83;84.20
73151;BME280;61354;50.758;6.106;2023-02-28T02:46:24;100441.13;;;-1.76;84.00
73151;BME280;61354;50.758;6.106;2023-02-28T02:48:51;100439.66;;;-1.66;83.35
73151;BME280;61354;50.758;6.106;2023-02-28T02:51:22;100440.81;;;-1.62;83.82
73151;BME280;61354;50.758;6.106;2023-02-28T02:53:49;100438.59;;;-1.65;83.47
73151;BME280;61354;50.758;6.106;2023-02-28T02:56:21;100446.84;;;-1.60;83.81
73151;BME280;61354;50.758;6.106;2023-02-28T02:58:50;100444.88;;;-1.65;83.14
73151;BME280;61354;50.758;6.106;2023-02-28T03:01:21;100449.19;;;-1.81;83.85
73151;BME280;61354;50.758;6.106;2023-02-28T03:03:58;100445.19;;;-2.07;85.01
73151;BME280;61354;50.758;6.106;2023-02-28T03:06:25;100448.47;;;-1.76;83.92
73151;BME280;61354;50.758;6.106;2023-02-28T03:08:51;100442.88;;;-1.69;83.52
73151;BME280;61354;50.758;6.106;2023-02-28T03:11:17;100436.38;;;-1.97;84.51
73151;BME280;61354;50.758;6.106;2023-02-28T03:13:53;100436.56;;;-1.87;84.70
73151;BME280;61354;50.758;6.106;2023-02-28T03:21:32;100440.78;;;-2.08;85.75
73151;BME280;61354;50.758;6.106;2023-02-28T03:24:11;100437.53;;;-2.21;86.08
73151;BME280;61354;50.758;6.106;2023-02-28T03:26:56;100433.75;;;-2.20;86.16
73151;BME280;61354;50.758;6.106;2023-02-28T03:29:33;100431.16;;;-2.27;86.16
73151;BME280;61354;50.758;6.106;2023-02-28T03:32:13;100432.44;;;-2.18;86.04
73151;BME280;61354;50.758;6.106;2023-02-28T03:34:56;100425.81;;;-2.22;87.00
73151;BME280;61354;50.758;6.106;2023-02-28T03:37:25;100422.81;;;-2.09;86.29
73151;BME280;61354;50.758;6.106;2023-02-28T03:40:05;100427.72;;;-1.94;86.44
73151;BME280;61354;50.758;6.106;2023-02-28T03:42:34;100437.28;;;-2.20;86.61
73151;BME280;61354;50.758;6.106;2023-02-28T03:45:04;100431.56;;;-2.07;86.04
73151;BME280;61354;50.758;6.106;2023-02-28T03:47:47;100435.84;;;-1.82;85.20
73151;BME280;61354;50.758;6.106;2023-02-28T03:50:24;100430.91;;;-1.68;85.66
73151;BME280;61354;50.758;6.106;2023-02-28T03:53:06;100432.94;;;-1.76;84.78
73151;BME280;61354;50.758;6.106;2023-02-28T03:55:41;100429.66;;;-1.78;84.58
73151;BME280;61354;50.758;6.106;2023-02-28T04:01:11;100426.94;;;-1.78;84.74
73151;BME280;61354;50.758;6.106;2023-02-28T04:03:38;100426.53;;;-1.69;84.52
73151;BME280;61354;50.758;6.106;2023-02-28T04:06:13;100434.59;;;-1.75;84.58
73151;BME280;61354;50.758;6.106;2023-02-28T04:08:40;100432.03;;;-1.81;85.07
73151;BME280;61354;50.758;6.106;2023-02-28T04:11:22;100437.72;;;-1.83;84.87
73151;BME280;61354;50.758;6.106;2023-02-28T04:13:48;100439.53;;;-1.88;85.05
73151;BME280;61354;50.758;6.106;2023-02-28T04:16:14;100429.91;;;-2.08;85.89
73151;BME280;61354;50.758;6.106;2023-02-28T04:18:40;100434.69;;;-2.15;86.50
73151;BME280;61354;50.758;6.106;2023-02-28T04:21:08;100427.34;;;-1.86;85.38
73151;BME280;61354;50.758;6.106;2023-02-28T04:23:34;100425.34;;;-1.90;84.84
73151;BME280;61354;50.758;6.106;2023-02-28T04:25:59;100429.28;;;-1.98;85.07
73151;BME280;61354;50.758;6.106;2023-02-28T04:28:25;100437.16;;;-2.13;84.48
73151;BME280;61354;50.758;6.106;2023-02-28T04:31:03;100438.91;;;-2.47;85.77
73151;BME280;61354;50.758;6.106;2023-02-28T04:33:31;100430.34;;;-2.28;85.13
73151;BME280;61354;50.758;6.106;2023-02-28T04:36:06;100436.84;;;-2.00;85.31
73151;BME280;61354;50.758;6.106;2023-02-28T04:38:34;100432.09;;;-1.93;83.65
73151;BME280;61354;50.758;6.106;2023-02-28T04:41:01;100437.06;;;-2.18;84.63
73151;BME280;61354;50.758;6.106;2023-02-28T04:43:27;100436.91;;;-2.12;84.79
73151;BME280;61354;50.758;6.106;2023-02-28T04:45:54;100438.00;;;-2.25;85.50
73151;BME280;61354;50.758;6.106;2023-02-28T04:48:25;100438.44;;;-2.16;85.40
73151;BME280;61354;50.758;6.106;2023-02-28T04:50:51;100444.84;;;-2.10;85.23
73151;BME280;61354;50.758;6.106;2023-02-28T04:53:17;100447.28;;;-2.37;86.42
73151;BME280;61354;50.758;6.106;2023-02-28T04:55:44;100453.59;;;-2.20;86.03
73151;BME280;61354;50.758;6.106;2023-02-28T04:58:10;100457.75;;;-2.17;85.56
73151;BME280;61354;50.758;6.106;2023-02-28T05:00:35;100450.97;;;-2.43;86.84
73151;BME280;61354;50.758;6.106;2023-02-28T05:03:01;100454.69;;;-2.21;86.78
73151;BME280;61354;50.758;6.106;2023-02-28T05:05:27;100457.06;;;-2.25;86.71
73151;BME280;61354;50.758;6.106;2023-02-28T05:07:52;100460.38;;;-2.22;86.84
73151;BME280;61354;50.758;6.106;2023-02-28T05:10:19;100457.81;;;-2.41;86.78
73151;BME280;61354;50.758;6.106;2023-02-28T05:12:44;100460.78;;;-2.42;87.51
73151;BME280;61354;50.758;6.106;2023-02-28T05:15:15;100457.59;;;-2.39;86.57
73151;BME280;61354;50.758;6.106;2023-02-28T05:17:40;100453.91;;;-2.45;86.55
73151;BME280;61354;50.758;6.106;2023-02-28T05:20:07;100457.50;;;-2.80;88.11
73151;BME280;61354;50.758;6.106;2023-02-28T05:22:39;100454.78;;;-2.56;87.41
73151;BME280;61354;50.758;6.106;2023-02-28T05:25:05;100456.22;;;-2.65;87.23
73151;BME280;61354;50.758;6.106;2023-02-28T05:27:31;100461.13;;;-2.39;87.07
73151;BME280;61354;50.758;6.106;2023-02-28T05:29:56;100460.06;;;-2.50;86.13
73151;BME280;61354;50.758;6.106;2023-02-28T05:32:22;100463.06;;;-2.63;87.05
73151;BME280;61354;50.758;6.106;2023-02-28T05:34:48;100462.03;;;-2.73;86.82
73151;BME280;61354;50.758;6.106;2023-02-28T05:37:14;100453.91;;;-2.45;86.68
73151;BME280;61354;50.758;6.106;2023-02-28T05:39:41;100454.72;;;-2.33;86.92
73151;BME280;61354;50.758;6.106;2023-02-28T05:42:07;100449.19;;;-2.50;87.19
73151;BME280;61354;50.758;6.106;2023-02-28T05:44:33;100464.78;;;-2.45;87.83
73151;BME280;61354;50.758;6.106;2023-02-28T05:46:58;100470.38;;;-2.63;87.80
73151;BME280;61354;50.758;6.106;2023-02-28T05:49:24;100463.03;;;-2.51;87.91
73151;BME280;61354;50.758;6.106;2023-02-28T05:51:50;100458.44;;;-2.51;88.00
73151;BME280;61354;50.758;6.106;2023-02-28T05:54:15;100457.56;;;-2.28;87.46
73151;BME280;61354;50.758;6.106;2023-02-28T05:56:41;100456.84;;;-2.35;86.96
73151;BME280;61354;50.758;6.106;2023-02-28T05:59:10;100460.81;;;-2.66;87.44
73151;BME280;61354;50.758;6.106;2023-02-28T06:01:37;100453.47;;;-2.54;87.34
73151;BME280;61354;50.758;6.106;2023-02-28T06:04:05;100448.47;;;-2.45;86.79
73151;BME280;61354;50.758;6.106;2023-02-28T06:06:32;100453.53;;;-2.37;86.10
73151;BME280;61354;50.758;6.106;2023-02-28T06:09:00;100452.59;;;-2.31;85.80
73151;BME280;61354;50.758;6.106;2023-02-28T06:11:26;100454.38;;;-2.36;85.83
73151;BME280;61354;50.758;6.106;2023-02-28T06:13:54;100459.25;;;-2.50;86.48
73151;BME280;61354;50.758;6.106;2023-02-28T06:16:21;100451.19;;;-2.45;86.13
73151;BME280;61354;50.758;6.106;2023-02-28T06:18:46;100453.22;;;-2.40;84.97
73151;BME280;61354;50.758;6.106;2023-02-28T06:21:12;100465.50;;;-2.50;84.70
73151;BME280;61354;50.758;6.106;2023-02-28T06:23:38;100464.59;;;-2.55;84.94
73151;BME280;61354;50.758;6.106;2023-02-28T06:26:04;100469.41;;;-2.57;85.21
73151;BME280;61354;50.758;6.106;2023-02-28T06:28:30;100470.72;;;-2.36;84.95
73151;BME280;61354;50.758;6.106;2023-02-28T06:30:56;100465.84;;;-2.46;85.73
73151;BME280;61354;50.758;6.106;2023-02-28T06:33:22;100473.81;;;-2.56;85.24
73151;BME280;61354;50.758;6.106;2023-02-28T06:35:50;100472.75;;;-2.67;86.33
73151;BME280;61354;50.758;6.106;2023-02-28T06:38:16;100482.34;;;-2.64;85.83
73151;BME280;61354;50.758;6.106;2023-02-28T06:40:43;100480.91;;;-2.55;86.36
73151;BME280;61354;50.758;6.106;2023-02-28T06:43:09;100484.59;;;-2.61;86.00
73151;BME280;61354;50.758;6.106;2023-02-28T06:45:44;100485.78;;;-2.81;86.86
73151;BME280;61354;50.758;6.106;2023-02-28T06:48:09;100489.66;;;-2.65;86.50
73151;BME280;61354;50.758;6.106;2023-02-28T06:50:36;100495.31;;;-2.66;86.92
73151;BME280;61354;50.758;6.106;2023-02-28T06:53:01;100490.50;;;-2.88;87.86
73151;BME280;61354;50.758;6.106;2023-02-28T06:55:27;100492.63;;;-2.90;87.83
73151;BME280;61354;50.758;6.106;2023-02-28T06:57:52;100499.72;;;-2.77;87.42
73151;BME280;61354;50.758;6.106;2023-02-28T07:00:20;100507.28;;;-2.67;87.50
73151;BME280;61354;50.758;6.106;2023-02-28T07:02:46;100512.47;;;-2.89;88.17
73151;BME280;61354;50.758;6.106;2023-02-28T07:05:12;100514.69;;;-2.86;87.95
73151;BME280;61354;50.758;6.106;2023-02-28T07:07:38;100520.16;;;-2.63;87.47
73151;BME280;61354;50.758;6.106;2023-02-28T07:10:10;100513.66;;;-2.73;87.49
73151;BME280;61354;50.758;6.106;2023-02-28T07:12:36;100516.25;;;-2.67;87.71
73151;BME280;61354;50.758;6.106;2023-02-28T07:15:03;100512.47;;;-2.54;86.73
73151;BME280;61354;50.758;6.106;2023-02-28T07:17:29;100517.31;;;-2.56;86.28
73151;BME280;61354;50.758;6.106;2023-02-28T07:19:55;100516.59;;;-2.63;87.44
73151;BME280;61354;50.758;6.106;2023-02-28T07:22:21;100515.78;;;-2.52;87.63
73151;BME280;61354;50.758;6.106;2023-02-28T07:24:47;100513.63;;;-2.62;87.65
73151;BME280;61354;50.758;6.106;2023-02-28T07:27:12;100517.53;;;-2.46;87.04
73151;BME280;61354;50.758;6.106;2023-02-28T07:29:51;100512.00;;;-2.51;87.15
73151;BME280;61354;50.758;6.106;2023-02-28T07:32:18;100516.34;;;-2.50;86.90
73151;BME280;61354;50.758;6.106;2023-02-28T07:34:44;100512.69;;;-2.32;86.53
73151;BME280;61354;50.758;6.106;2023-02-28T07:37:10;100515.88;;;-2.23;85.22
73151;BME280;61354;50.758;6.106;2023-02-28T07:39:35;100522.16;;;-2.35;85.88
73151;BME280;61354;50.758;6.106;2023-02-28T07:42:04;100523.78;;;-2.34;85.61
73151;BME280;61354;50.758;6.106;2023-02-28T07:44:31;100520.69;;;-2.26;85.60
73151;BME280;61354;50.758;6.106;2023-02-28T07:46:57;100529.34;;;-2.29;84.77
73151;BME280;61354;50.758;6.106;2023-02-28T07:49:23;100526.03;;;-2.19;84.15
73151;BME280;61354;50.758;6.106;2023-02-28T07:51:48;100524.22;;;-2.13;83.38
73151;BME280;61354;50.758;6.106;2023-02-28T07:54:14;100520.22;;;-2.11;83.85
73151;BME280;61354;50.758;6.106;2023-02-28T07:56:39;100511.22;;;-2.11;84.24
73151;BME280;61354;50.758;6.106;2023-02-28T07:59:05;100520.41;;;-2.01;83.72
73151;BME280;61354;50.758;6.106;2023-02-28T08:01:31;100514.75;;;-1.99;83.05
73151;BME280;61354;50.758;6.106;2023-02-28T08:03:56;100520.25;;;-1.82;82.70
73151;BME280;61354;50.758;6.106;2023-02-28T08:06:24;100518.22;;;-1.87;81.96
73151;BME280;61354;50.758;6.106;2023-02-28T08:08:50;100524.16;;;-1.90;81.79
73151;BME280;61354;50.758;6.106;2023-02-28T08:11:16;100525.44;;;-1.81;81.19
73151;BME280;61354;50.758;6.106;2023-02-28T08:13:43;100521.22;;;-1.60;81.32
73151;BME280;61354;50.758;6.106;2023-02-28T08:16:10;100528.94;;;-1.68;80.41
73151;BME280;61354;50.758;6.106;2023-02-28T08:18:36;100534.97;;;-1.66;80.80
73151;BME280;61354;50.758;6.106;2023-02-28T08:21:11;100534.09;;;-1.55;79.20
73151;BME280;61354;50.758;6.106;2023-02-28T08:23:36;100519.81;;;-1.45;78.74
73151;BME280;61354;50.758;6.106;2023-02-28T08:26:02;100526.53;;;-1.53;77.56
73151;BME280;61354;50.758;6.106;2023-02-28T08:28:28;100527.69;;;-1.49;77.82
73151;BME280;61354;50.758;6.106;2023-02-28T08:30:54;100521.84;;;-1.41;78.80
73151;BME280;61354;50.758;6.106;2023-02-28T08:33:20;100517.72;;;-1.27;77.52
73151;BME280;61354;50.758;6.106;2023-02-28T08:35:45;100527.97;;;-1.17;77.14
73151;BME280;61354;50.758;6.106;2023-02-28T08:38:11;100527.63;;;-1.20;75.99
73151;BME280;61354;50.758;6.106;2023-02-28T08:40:37;100527.81;;;-1.10;74.22
73151;BME280;61354;50.758;6.106;2023-02-28T08:43:02;100520.78;;;-1.06;75.06
73151;BME280;61354;50.758;6.106;2023-02-28T08:45:28;100525.84;;;-0.98;74.17
73151;BME280;61354;50.758;6.106;2023-02-28T08:47:54;100528.16;;;-0.90;72.80
73151;BME280;61354;50.758;6.106;2023-02-28T08:50:21;100528.97;;;-0.89;72.94
73151;BME280;61354;50.758;6.106;2023-02-28T08:52:46;100523.69;;;-0.96;70.72
73151;BME280;61354;50.758;6.106;2023-02-28T08:55:12;100526.66;;;-0.81;72.10
73151;BME280;61354;50.758;6.106;2023-02-28T08:57:38;100524.34;;;-0.72;70.93
73151;BME280;61354;50.758;6.106;2023-02-28T09:00:04;100522.84;;;-0.63;72.40
73151;BME280;61354;50.758;6.106;2023-02-28T09:02:31;100519.44;;;-0.53;71.48
73151;BME280;61354;50.758;6.106;2023-02-28T09:04:57;100522.16;;;-0.53;70.71
73151;BME280;61354;50.758;6.106;2023-02-28T09:07:24;100534.41;;;-0.56;71.06
73151;BME280;61354;50.758;6.106;2023-02-28T09:09:49;100528.19;;;-0.51;71.27
73151;BME280;61354;50.758;6.106;2023-02-28T09:12:25;100522.91;;;-0.41;70.78
73151;BME280;61354;50.758;6.106;2023-02-28T09:14:52;100518.59;;;-0.37;68.44
73151;BME280;61354;50.758;6.106;2023-02-28T09:17:18;100523.13;;;-0.42;68.73
73151;BME280;61354;50.758;6.106;2023-02-28T09:19:44;100523.53;;;-0.34;68.11
73151;BME280;61354;50.758;6.106;2023-02-28T09:22:10;100508.94;;;-0.22;67.41
73151;BME280;61354;50.758;6.106;2023-02-28T09:24:37;100519.03;;;-0.23;67.53
73151;BME280;61354;50.758;6.106;2023-02-28T09:27:03;100517.19;;;-0.17;66.75
73151;BME280;61354;50.758;6.106;2023-02-28T09:29:30;100510.16;;;-0.13;66.84
73151;BME280;61354;50.758;6.106;2023-02-28T09:31:56;100520.88;;;-0.07;68.09
73151;BME280;61354;50.758;6.106;2023-02-28T09:34:25;100501.34;;;0.02;65.32
73151;BME280;61354;50.758;6.106;2023-02-28T09:36:50;100502.25;;;0.12;63.23
73151;BME280;61354;50.758;6.106;2023-02-28T09:39:21;100504.00;;;0.18;62.94
73151;BME280;61354;50.758;6.106;2023-02-28T09:41:49;100498.56;;;0.23;63.26
73151;BME280;61354;50.758;6.106;2023-02-28T09:44:29;100494.25;;;0.28;64.02
73151;BME280;61354;50.758;6.106;2023-02-28T09:47:05;100502.00;;;0.36;61.15
73151;BME280;61354;50.758;6.106;2023-02-28T09:49:42;100501.25;;;0.45;61.05
73151;BME280;61354;50.758;6.106;2023-02-28T09:52:20;100497.16;;;0.43;60.51
73151;BME280;61354;50.758;6.106;2023-02-28T09:54:47;100501.06;;;0.52;60.47
73151;BME280;61354;50.758;6.106;2023-02-28T10:05:14;100508.81;;;0.60;59.70
73151;BME280;61354;50.758;6.106;2023-02-28T10:13:24;100506.44;;;0.42;59.72
73151;BME280;61354;50.758;6.106;2023-02-28T10:15:58;100502.94;;;0.46;58.91
73151;BME280;61354;50.758;6.106;2023-02-28T10:18:32;100508.31;;;0.41;56.87
73151;BME280;61354;50.758;6.106;2023-02-28T10:21:02;100505.41;;;0.48;57.34
73151;BME280;61354;50.758;6.106;2023-02-28T10:23:32;100498.50;;;0.67;55.78
73151;BME280;61354;50.758;6.106;2023-02-28T10:26:09;100497.47;;;0.79;55.75
73151;BME280;61354;50.758;6.106;2023-02-28T10:28:36;100496.59;;;1.00;56.16
73151;BME280;61354;50.758;6.106;2023-02-28T10:31:02;100506.19;;;1.08;57.00
73151;BME280;61354;50.758;6.106;2023-02-28T10:33:33;100504.81;;;1.05;53.54
73151;BME280;61354;50.758;6.106;2023-02-28T10:36:00;100484.75;;;1.27;52.68
73151;BME280;61354;50.758;6.106;2023-02-28T10:38:37;100483.66;;;1.33;50.79
73151;BME280;61354;50.758;6.106;2023-02-28T10:41:06;100484.59;;;1.48;51.84
73151;BME280;61354;50.758;6.106;2023-02-28T10:43:32;100488.22;;;1.54;52.37
73151;BME280;61354;50.758;6.106;2023-02-28T10:46:09;100486.81;;;1.52;50.86
73151;BME280;61354;50.758;6.106;2023-02-28T10:48:50;100489.09;;;1.70;51.31
73151;BME280;61354;50.758;6.106;2023-02-28T10:51:23;100479.41;;;1.52;51.18
73151;BME280;61354;50.758;6.106;2023-02-28T10:53:50;100476.88;;;1.40;51.90
73151;BME280;61354;50.758;6.106;2023-02-28T10:56:19;100477.50;;;1.53;51.64
73151;BME280;61354;50.758;6.106;2023-02-28T11:01:45;100471.81;;;1.59;52.18
73151;BME280;61354;50.758;6.106;2023-02-28T11:07:17;100480.81;;;1.55;50.30
73151;BME280;61354;50.758;6.106;2023-02-28T11:09:46;100480.38;;;1.26;51.04
73151;BME280;61354;50.758;6.106;2023-02-28T11:14:54;100475.50;;;1.38;52.72
73151;BME280;61354;50.758;6.106;2023-02-28T11:17:28;100470.09;;;1.53;50.77
73151;BME280;61354;50.758;6.106;2023-02-28T11:19:58;100467.44;;;1.63;52.01
73151;BME280;61354;50.758;6.106;2023-02-28T11:22:28;100460.38;;;1.78;52.04
73151;BME280;61354;50.758;6.106;2023-02-28T11:24:59;100457.69;;;1.88;49.96
73151;BME280;61354;50.758;6.106;2023-02-28T11:29:58;100467.75;;;1.67;51.41
73151;BME280;61354;50.758;6.106;2023-02-28T11:32:29;100461.50;;;1.82;51.90
73151;BME280;61354;50.758;6.106;2023-02-28T11:37:36;100470.66;;;1.50;51.65
73151;BME280;61354;50.758;6.106;2023-02-28T11:40:08;100464.09;;;1.56;51.39
73151;BME280;61354;50.758;6.106;2023-02-28T11:42:53;100461.97;;;1.63;51.39
73151;BME280;61354;50.758;6.106;2023-02-28T11:45:25;100461.34;;;1.46;50.44
73151;BME280;61354;50.758;6.106;2023-02-28T11:50:42;100460.94;;;1.74;51.32
73151;BME280;61354;50.758;6.106;2023-02-28T11:55:45;100456.56;;;1.79;52.19
73151;BME280;61354;50.758;6.106;2023-02-28T12:01:28;100447.03;;;1.34;52.92
73151;BME280;61354;50.758;6.106;2023-02-28T12:07:37;100449.38;;;1.67;51.91
73151;BME280;61354;50.758;6.106;2023-02-28T12:26:37;100442.50;;;2.33;51.18
73151;BME280;61354;50.758;6.106;2023-02-28T12:29:27;100445.22;;;2.33;50.72
73151;BME280;61354;50.758;6.106;2023-02-28T12:31:59;100435.91;;;2.44;51.18
73151;BME280;61354;50.758;6.106;2023-02-28T12:34:30;100426.06;;;2.53;50.08
73151;BME280;61354;50.758;6.106;2023-02-28T12:36:58;100436.50;;;2.66;49.91
73151;BME280;61354;50.758;6.106;2023-02-28T12:39:30;100433.75;;;2.71;50.89
73151;BME280;61354;50.758;6.106;2023-02-28T12:42:05;100433.47;;;2.83;50.51
73151;BME280;61354;50.758;6.106;2023-02-28T12:45:04;100425.25;;;2.88;50.08
73151;BME280;61354;50.758;6.106;2023-02-28T12:47:34;100429.91;;;2.88;50.00
73151;BME280;61354;50.758;6.106;2023-02-28T12:50:07;100434.84;;;2.76;49.23
73151;BME280;61354;50.758;6.106;2023-02-28T13:04:25;100416.19;;;2.67;49.37
73151;BME280;61354;50.758;6.106;2023-02-28T13:09:38;100411.78;;;2.82;49.87
73151;BME280;61354;50.758;6.106;2023-02-28T13:12:23;100399.72;;;2.72;49.01
73151;BME280;61354;50.758;6.106;2023-02-28T13:14:50;100406.31;;;2.66;49.62
73151;BME280;61354;50.758;6.106;2023-02-28T13:17:21;100394.78;;;2.85;49.15
73151;BME280;61354;50.758;6.106;2023-02-28T13:22:38;100396.97;;;2.93;49.92
73151;BME280;61354;50.758;6.106;2023-02-28T13:27:51;100389.03;;;2.91;51.47
73151;BME280;61354;50.758;6.106;2023-02-28T13:38:50;100387.66;;;2.84;48.66
73151;BME280;61354;50.758;6.106;2023-02-28T14:05:35;100370.84;;;3.21;48.73
73151;BME280;61354;50.758;6.106;2023-02-28T14:08:08;100370.09;;;3.00;48.94
73151;BME280;61354;50.758;6.106;2023-02-28T14:10:44;100374.47;;;3.11;49.29
73151;BME280;61354;50.758;6.106;2023-02-28T14:15:56;100373.88;;;3.19;50.61
73151;BME280;61354;50.758;6.106;2023-02-28T14:20:48;100359.09;;;3.00;49.54
73151;BME280;61354;50.758;6.106;2023-02-28T14:31:41;100357.94;;;3.21;51.08
73151;BME280;61354;50.758;6.106;2023-02-28T14:36:44;100359.09;;;3.00;48.12
73151;BME280;61354;50.758;6.106;2023-02-28T14:41:41;100349.72;;;3.21;48.96
73151;BME280;61354;50.758;6.106;2023-02-28T14:44:24;100348.34;;;3.24;48.92
73151;BME280;61354;50.758;6.106;2023-02-28T14:46:53;100346.41;;;3.24;48.47
73151;BME280;61354;50.758;6.106;2023-02-28T14:49:29;100347.44;;;3.39;49.35
73151;BME280;61354;50.758;6.106;2023-02-28T14:54:43;100345.22;;;3.46;49.02
73151;BME280;61354;50.758;6.106;2023-02-28T14:57:33;100347.44;;;3.49;48.05
73151;BME280;61354;50.758;6.106;2023-02-28T15:02:38;100343.00;;;3.53;48.76
73151;BME280;61354;50.758;6.106;2023-02-28T15:07:42;100334.81;;;3.43;48.35
73151;BME280;61354;50.758;6.106;2023-02-28T15:10:28;100340.84;;;3.40;48.22
73151;BME280;61354;50.758;6.106;2023-02-28T15:13:10;100334.28;;;3.36;49.14
73151;BME280;61354;50.758;6.106;2023-02-28T15:18:26;100338.00;;;3.60;48.71
73151;BME280;61354;50.758;6.106;2023-02-28T15:20:55;100338.88;;;3.56;48.83
73151;BME280;61354;50.758;6.106;2023-02-28T15:23:22;100338.03;;;3.55;47.12
73151;BME280;61354;50.758;6.106;2023-02-28T15:25:52;100336.34;;;3.69;48.61
73151;BME280;61354;50.758;6.106;2023-02-28T15:28:20;100332.44;;;3.76;47.35
73151;BME280;61354;50.758;6.106;2023-02-28T15:31:21;100339.66;;;3.66;46.85
73151;BME280;61354;50.758;6.106;2023-02-28T15:33:55;100346.66;;;3.88;48.48
73151;BME280;61354;50.758;6.106;2023-02-28T15:36:25;100335.97;;;3.81;47.67
73151;BME280;61354;50.758;6.106;2023-02-28T15:38:53;100347.22;;;3.85;47.90
73151;BME280;61354;50.758;6.106;2023-02-28T15:41:25;100338.38;;;3.93;47.37
73151;BME280;61354;50.758;6.106;2023-02-28T15:44:27;100337.88;;;3.91;47.26
73151;BME280;61354;50.758;6.106;2023-02-28T15:47:01;100341.09;;;4.03;49.03
73151;BME280;61354;50.758;6.106;2023-02-28T15:49:29;100344.16;;;4.31;47.85
73151;BME280;61354;50.758;6.106;2023-02-28T15:51:59;100337.72;;;4.11;47.76
73151;BME280;61354;50.758;6.106;2023-02-28T15:54:32;100330.81;;;4.14;46.83